sensor_id;sensor_type;location;lat;lon;timestamp;temperature;humidity
3727;DHT22;1879;45.876;12.300;2022-10-26T00:00:13;15.30;99.90
3727;DHT22;1879;45.876;12.300;2022-10-26T00:02:41;15.40;99.90
3727;DHT22;1879;45.876;12.300;2022-10-26T00:05:08;15.60;99.90
3727;DHT22;1879;45.876;12.300;2022-10-26T00:07:35;15.70;99.90
3727;DHT22;1879;45.876;12.300;2022-10-26T00:10:03;15.80;99.90
3727;DHT22;1879;45.876;12.300;2022-10-26T00:12:30;15.90;99.90
3727;DHT22;1879;45.876;12.300;2022-10-26T00:14:56;15.90;99.90
3727;DHT22;1879;45.876;12.300;2022-10-26T00:17:25;16.00;99.90
3727;DHT22;1879;45.876;12.300;2022-10-26T00:19:52;16.10;99.90
3727;DHT22;1879;45.876;12.300;2022-10-26T00:22:19;16.20;99.90
3727;DHT22;1879;45.876;12.300;2022-10-26T00:24:46;16.20;99.90
3727;DHT22;1879;45.876;12.300;2022-10-26T00:27:13;16.20;99.90
3727;DHT22;1879;45.876;12.300;2022-10-26T00:29:40;16.20;99.90
3727;DHT22;1879;45.876;12.300;2022-10-26T00:32:07;16.20;99.90
3727;DHT22;1879;45.876;12.300;2022-10-26T00:34:36;16.20;99.90
3727;DHT22;1879;45.876;12.300;2022-10-26T00:37:03;16.20;99.90
3727;DHT22;1879;45.876;12.300;2022-10-26T00:39:29;16.20;99.90
3727;DHT22;1879;45.876;12.300;2022-10-26T00:41:56;16.20;99.90
3727;DHT22;1879;45.876;12.300;2022-10-26T00:44:54;16.20;99.90
3727;DHT22;1879;45.876;12.300;2022-10-26T00:47:33;16.20;99.90
3727;DHT22;1879;45.876;12.300;2022-10-26T00:50:05;16.20;99.90
3727;DHT22;1879;45.876;12.300;2022-10-26T00:52:33;16.20;99.90
3727;DHT22;1879;45.876;12.300;2022-10-26T00:55:01;16.20;99.90
3727;DHT22;1879;45.876;12.300;2022-10-26T00:57:28;16.20;99.90
3727;DHT22;1879;45.876;12.300;2022-10-26T00:59:56;16.20;99.90
3727;DHT22;1879;45.876;12.300;2022-10-26T01:02:23;16.20;99.90
3727;DHT22;1879;45.876;12.300;2022-10-26T01:04:51;16.20;99.90
3727;DHT22;1879;45.876;12.300;2022-10-26T01:07:20;16.20;99.90
3727;DHT22;1879;45.876;12.300;2022-10-26T01:09:48;16.20;99.90
3727;DHT22;1879;45.876;12.300;2022-10-26T01:12:15;16.20;99.90
3727;DHT22;1879;45.876;12.300;2022-10-26T01:14:42;16.20;99.90
3727;DHT22;1879;45.876;12.300;2022-10-26T01:17:20;16.20;99.90
3727;DHT22;1879;45.876;12.300;2022-10-26T01:20:18;16.20;99.90
3727;DHT22;1879;45.876;12.300;2022-10-26T01:22:56;16.20;99.90
3727;DHT22;1879;45.876;12.300;2022-10-26T01:25:40;16.20;99.90
3727;DHT22;1879;45.876;12.300;2022-10-26T01:28:21;16.20;99.90
3727;DHT22;1879;45.876;12.300;2022-10-26T01:30:57;16.20;99.90
3727;DHT22;1879;45.876;12.300;2022-10-26T01:33:33;16.30;99.90
3727;DHT22;1879;45.876;12.300;2022-10-26T01:36:08;16.30;99.90
3727;DHT22;1879;45.876;12.300;2022-10-26T01:38:43;16.30;99.90
3727;DHT22;1879;45.876;12.300;2022-10-26T01:41:16;16.30;99.90
3727;DHT22;1879;45.876;12.300;2022-10-26T01:43:48;16.30;99.90
3727;DHT22;1879;45.876;12.300;2022-10-26T01:46:18;16.20;99.90
3727;DHT22;1879;45.876;12.300;2022-10-26T01:48:49;16.10;99.90
3727;DHT22;1879;45.876;12.300;2022-10-26T01:51:18;16.00;99.90
3727;DHT22;1879;45.876;12.300;2022-10-26T01:53:45;15.90;99.90
3727;DHT22;1879;45.876;12.300;2022-10-26T01:56:17;15.90;99.90
3727;DHT22;1879;45.876;12.300;2022-10-26T01:59:06;15.80;99.90
3727;DHT22;1879;45.876;12.300;2022-10-26T02:02:19;15.80;99.90
3727;DHT22;1879;45.876;12.300;2022-10-26T02:05:01;15.80;99.90
3727;DHT22;1879;45.876;12.300;2022-10-26T02:07:39;15.70;99.90
3727;DHT22;1879;45.876;12.300;2022-10-26T02:10:20;15.70;99.90
3727;DHT22;1879;45.876;12.300;2022-10-26T02:12:58;15.60;99.90
3727;DHT22;1879;45.876;12.300;2022-10-26T02:15:33;15.50;99.90
3727;DHT22;1879;45.876;12.300;2022-10-26T02:18:06;15.50;99.90
3727;DHT22;1879;45.876;12.300;2022-10-26T02:20:37;15.50;99.90
3727;DHT22;1879;45.876;12.300;2022-10-26T02:23:07;15.50;99.90
3727;DHT22;1879;45.876;12.300;2022-10-26T02:25:39;15.40;99.90
3727;DHT22;1879;45.876;12.300;2022-10-26T02:28:12;15.40;99.90
3727;DHT22;1879;45.876;12.300;2022-10-26T02:30:41;15.50;99.90
3727;DHT22;1879;45.876;12.300;2022-10-26T02:33:11;15.50;99.90
3727;DHT22;1879;45.876;12.300;2022-10-26T02:35:41;15.50;99.90
3727;DHT22;1879;45.876;12.300;2022-10-26T02:38:10;15.50;99.90
3727;DHT22;1879;45.876;12.300;2022-10-26T02:40:39;15.50;99.90
3727;DHT22;1879;45.876;12.300;2022-10-26T02:43:09;15.60;99.90
3727;DHT22;1879;45.876;12.300;2022-10-26T02:45:43;15.60;99.90
3727;DHT22;1879;45.876;12.300;2022-10-26T02:48:13;15.60;99.90
3727;DHT22;1879;45.876;12.300;2022-10-26T02:50:48;15.60;99.90
3727;DHT22;1879;45.876;12.300;2022-10-26T02:53:23;15.60;99.90
3727;DHT22;1879;45.876;12.300;2022-10-26T02:55:51;15.60;99.90
3727;DHT22;1879;45.876;12.300;2022-10-26T02:58:23;15.50;99.90
3727;DHT22;1879;45.876;12.300;2022-10-26T03:00:52;15.60;99.90
3727;DHT22;1879;45.876;12.300;2022-10-26T03:03:21;15.60;99.90
3727;DHT22;1879;45.876;12.300;2022-10-26T03:05:48;15.50;99.90
3727;DHT22;1879;45.876;12.300;2022-10-26T03:08:15;15.60;99.90
3727;DHT22;1879;45.876;12.300;2022-10-26T03:10:43;15.50;99.90
3727;DHT22;1879;45.876;12.300;2022-10-26T03:13:12;15.30;99.90
3727;DHT22;1879;45.876;12.300;2022-10-26T03:15:39;15.20;99.90
3727;DHT22;1879;45.876;12.300;2022-10-26T03:18:07;15.20;99.90
3727;DHT22;1879;45.876;12.300;2022-10-26T03:20:36;15.20;99.90
3727;DHT22;1879;45.876;12.300;2022-10-26T03:23:04;15.20;99.90
3727;DHT22;1879;45.876;12.300;2022-10-26T03:25:31;15.30;99.90
3727;DHT22;1879;45.876;12.300;2022-10-26T03:27:58;15.30;99.90
3727;DHT22;1879;45.876;12.300;2022-10-26T03:30:26;15.40;99.90
3727;DHT22;1879;45.876;12.300;2022-10-26T03:32:53;15.40;99.90
3727;DHT22;1879;45.876;12.300;2022-10-26T03:35:21;15.40;99.90
3727;DHT22;1879;45.876;12.300;2022-10-26T03:37:49;15.40;99.90
3727;DHT22;1879;45.876;12.300;2022-10-26T03:40:16;15.40;99.90
3727;DHT22;1879;45.876;12.300;2022-10-26T03:42:43;15.40;99.90
3727;DHT22;1879;45.876;12.300;2022-10-26T03:45:10;15.30;99.90
3727;DHT22;1879;45.876;12.300;2022-10-26T03:47:44;15.30;99.90
3727;DHT22;1879;45.876;12.300;2022-10-26T03:50:12;15.30;99.90
3727;DHT22;1879;45.876;12.300;2022-10-26T03:52:39;15.30;99.90
3727;DHT22;1879;45.876;12.300;2022-10-26T03:55:09;15.30;99.90
3727;DHT22;1879;45.876;12.300;2022-10-26T03:57:39;15.30;99.90
3727;DHT22;1879;45.876;12.300;2022-10-26T04:00:08;15.30;99.90
3727;DHT22;1879;45.876;12.300;2022-10-26T04:02:35;15.30;99.90
3727;DHT22;1879;45.876;12.300;2022-10-26T04:05:03;15.40;99.90
3727;DHT22;1879;45.876;12.300;2022-10-26T04:07:30;15.40;99.90
3727;DHT22;1879;45.876;12.300;2022-10-26T04:09:57;15.40;99.90
3727;DHT22;1879;45.876;12.300;2022-10-26T04:12:25;15.40;99.90
3727;DHT22;1879;45.876;12.300;2022-10-26T04:14:52;15.40;99.90
3727;DHT22;1879;45.876;12.300;2022-10-26T04:17:22;15.40;99.90
3727;DHT22;1879;45.876;12.300;2022-10-26T04:19:49;15.40;99.90
3727;DHT22;1879;45.876;12.300;2022-10-26T04:22:16;15.30;99.90
3727;DHT22;1879;45.876;12.300;2022-10-26T04:24:43;15.30;99.90
3727;DHT22;1879;45.876;12.300;2022-10-26T04:27:10;15.30;99.90
3727;DHT22;1879;45.876;12.300;2022-10-26T04:29:38;15.20;99.90
3727;DHT22;1879;45.876;12.300;2022-10-26T04:32:05;15.20;99.90
3727;DHT22;1879;45.876;12.300;2022-10-26T04:34:32;15.20;99.90
3727;DHT22;1879;45.876;12.300;2022-10-26T04:36:59;15.20;99.90
3727;DHT22;1879;45.876;12.300;2022-10-26T04:39:26;15.20;99.90
3727;DHT22;1879;45.876;12.300;2022-10-26T04:41:53;15.20;99.90
3727;DHT22;1879;45.876;12.300;2022-10-26T04:44:20;15.20;99.90
3727;DHT22;1879;45.876;12.300;2022-10-26T04:46:49;15.20;99.90
3727;DHT22;1879;45.876;12.300;2022-10-26T04:49:16;15.20;99.90
3727;DHT22;1879;45.876;12.300;2022-10-26T04:51:43;15.20;99.90
3727;DHT22;1879;45.876;12.300;2022-10-26T04:54:10;15.30;99.90
3727;DHT22;1879;45.876;12.300;2022-10-26T04:56:37;15.30;99.90
3727;DHT22;1879;45.876;12.300;2022-10-26T04:59:04;15.40;99.90
3727;DHT22;1879;45.876;12.300;2022-10-26T05:01:32;15.50;99.90
3727;DHT22;1879;45.876;12.300;2022-10-26T05:04:00;15.50;99.90
3727;DHT22;1879;45.876;12.300;2022-10-26T05:06:27;15.50;99.90
3727;DHT22;1879;45.876;12.300;2022-10-26T05:08:54;15.40;99.90
3727;DHT22;1879;45.876;12.300;2022-10-26T05:11:21;15.40;99.90
3727;DHT22;1879;45.876;12.300;2022-10-26T05:13:48;15.30;99.90
3727;DHT22;1879;45.876;12.300;2022-10-26T05:16:15;15.20;99.90
3727;DHT22;1879;45.876;12.300;2022-10-26T05:18:42;15.20;99.90
3727;DHT22;1879;45.876;12.300;2022-10-26T05:21:11;15.20;99.90
3727;DHT22;1879;45.876;12.300;2022-10-26T05:23:44;15.20;99.90
3727;DHT22;1879;45.876;12.300;2022-10-26T05:26:13;15.20;99.90
3727;DHT22;1879;45.876;12.300;2022-10-26T05:28:40;15.30;99.90
3727;DHT22;1879;45.876;12.300;2022-10-26T05:31:07;15.40;99.90
3727;DHT22;1879;45.876;12.300;2022-10-26T05:33:34;15.40;99.90
3727;DHT22;1879;45.876;12.300;2022-10-26T05:36:01;15.40;99.90
3727;DHT22;1879;45.876;12.300;2022-10-26T05:38:29;15.40;99.90
3727;DHT22;1879;45.876;12.300;2022-10-26T05:40:56;15.40;99.90
3727;DHT22;1879;45.876;12.300;2022-10-26T05:43:26;15.40;99.90
3727;DHT22;1879;45.876;12.300;2022-10-26T05:45:53;15.40;99.90
3727;DHT22;1879;45.876;12.300;2022-10-26T05:48:20;15.30;99.90
3727;DHT22;1879;45.876;12.300;2022-10-26T05:50:47;15.30;99.90
3727;DHT22;1879;45.876;12.300;2022-10-26T05:53:14;15.30;99.90
3727;DHT22;1879;45.876;12.300;2022-10-26T05:55:43;15.40;99.90
3727;DHT22;1879;45.876;12.300;2022-10-26T05:58:11;15.30;99.90
3727;DHT22;1879;45.876;12.300;2022-10-26T06:00:47;15.30;99.90
3727;DHT22;1879;45.876;12.300;2022-10-26T06:03:24;15.40;99.90
3727;DHT22;1879;45.876;12.300;2022-10-26T06:05:55;15.50;99.90
3727;DHT22;1879;45.876;12.300;2022-10-26T06:08:24;15.60;99.90
3727;DHT22;1879;45.876;12.300;2022-10-26T06:10:54;15.60;99.90
3727;DHT22;1879;45.876;12.300;2022-10-26T06:13:24;15.70;99.90
3727;DHT22;1879;45.876;12.300;2022-10-26T06:16:02;15.70;99.90
3727;DHT22;1879;45.876;12.300;2022-10-26T06:18:39;15.80;99.90
3727;DHT22;1879;45.876;12.300;2022-10-26T06:21:26;15.80;99.90
3727;DHT22;1879;45.876;12.300;2022-10-26T06:24:00;15.80;99.90
3727;DHT22;1879;45.876;12.300;2022-10-26T06:26:38;15.80;99.90
3727;DHT22;1879;45.876;12.300;2022-10-26T06:29:19;15.80;99.90
3727;DHT22;1879;45.876;12.300;2022-10-26T06:31:48;15.90;99.90
3727;DHT22;1879;45.876;12.300;2022-10-26T06:34:21;15.90;99.90
3727;DHT22;1879;45.876;12.300;2022-10-26T06:36:50;16.00;99.90
3727;DHT22;1879;45.876;12.300;2022-10-26T06:39:18;16.00;99.90
3727;DHT22;1879;45.876;12.300;2022-10-26T06:41:47;16.10;99.90
3727;DHT22;1879;45.876;12.300;2022-10-26T06:44:21;16.20;99.90
3727;DHT22;1879;45.876;12.300;2022-10-26T06:46:54;16.30;99.90
3727;DHT22;1879;45.876;12.300;2022-10-26T06:49:28;16.40;99.90
3727;DHT22;1879;45.876;12.300;2022-10-26T06:51:58;16.40;99.90
3727;DHT22;1879;45.876;12.300;2022-10-26T06:54:38;16.40;99.90
3727;DHT22;1879;45.876;12.300;2022-10-26T06:57:14;16.40;99.90
3727;DHT22;1879;45.876;12.300;2022-10-26T06:59:44;16.30;99.90
3727;DHT22;1879;45.876;12.300;2022-10-26T07:02:12;16.30;99.90
3727;DHT22;1879;45.876;12.300;2022-10-26T07:04:40;16.30;99.90
3727;DHT22;1879;45.876;12.300;2022-10-26T07:07:08;16.20;99.90
3727;DHT22;1879;45.876;12.300;2022-10-26T07:09:35;16.30;99.90
3727;DHT22;1879;45.876;12.300;2022-10-26T07:12:02;16.20;99.90
3727;DHT22;1879;45.876;12.300;2022-10-26T07:14:34;16.20;99.90
3727;DHT22;1879;45.876;12.300;2022-10-26T07:17:01;16.20;99.90
3727;DHT22;1879;45.876;12.300;2022-10-26T07:19:30;16.30;99.90
3727;DHT22;1879;45.876;12.300;2022-10-26T07:22:03;16.30;99.90
3727;DHT22;1879;45.876;12.300;2022-10-26T07:24:34;16.30;99.90
3727;DHT22;1879;45.876;12.300;2022-10-26T07:27:09;16.40;99.90
3727;DHT22;1879;45.876;12.300;2022-10-26T07:29:42;16.50;99.90
3727;DHT22;1879;45.876;12.300;2022-10-26T07:32:12;16.60;99.90
3727;DHT22;1879;45.876;12.300;2022-10-26T07:34:43;16.70;99.90
3727;DHT22;1879;45.876;12.300;2022-10-26T07:37:12;16.70;99.90
3727;DHT22;1879;45.876;12.300;2022-10-26T07:39:41;16.80;99.90
3727;DHT22;1879;45.876;12.300;2022-10-26T07:42:10;16.80;99.90
3727;DHT22;1879;45.876;12.300;2022-10-26T07:44:44;16.90;99.90
3727;DHT22;1879;45.876;12.300;2022-10-26T07:47:16;16.80;99.90
3727;DHT22;1879;45.876;12.300;2022-10-26T07:49:47;16.80;99.90
3727;DHT22;1879;45.876;12.300;2022-10-26T07:52:25;16.80;99.90
3727;DHT22;1879;45.876;12.300;2022-10-26T07:55:04;16.90;99.90
3727;DHT22;1879;45.876;12.300;2022-10-26T07:57:48;17.00;99.90
3727;DHT22;1879;45.876;12.300;2022-10-26T08:04:14;17.10;99.90
3727;DHT22;1879;45.876;12.300;2022-10-26T08:07:01;17.20;99.90
3727;DHT22;1879;45.876;12.300;2022-10-26T08:09:44;17.30;99.90
3727;DHT22;1879;45.876;12.300;2022-10-26T08:12:31;17.40;99.90
3727;DHT22;1879;45.876;12.300;2022-10-26T08:15:18;17.50;99.90
3727;DHT22;1879;45.876;12.300;2022-10-26T08:21:23;17.70;99.90
3727;DHT22;1879;45.876;12.300;2022-10-26T08:24:34;17.80;99.90
3727;DHT22;1879;45.876;12.300;2022-10-26T08:27:09;17.90;99.90
3727;DHT22;1879;45.876;12.300;2022-10-26T08:29:47;18.00;99.90
3727;DHT22;1879;45.876;12.300;2022-10-26T08:32:23;18.10;99.90
3727;DHT22;1879;45.876;12.300;2022-10-26T08:35:20;18.10;99.90
3727;DHT22;1879;45.876;12.300;2022-10-26T08:38:11;18.20;99.90
3727;DHT22;1879;45.876;12.300;2022-10-26T08:41:04;18.30;99.90
3727;DHT22;1879;45.876;12.300;2022-10-26T08:43:59;18.30;99.90
3727;DHT22;1879;45.876;12.300;2022-10-26T08:47:05;18.30;99.90
3727;DHT22;1879;45.876;12.300;2022-10-26T08:49:51;18.40;99.90
3727;DHT22;1879;45.876;12.300;2022-10-26T08:52:41;18.50;99.90
3727;DHT22;1879;45.876;12.300;2022-10-26T08:55:38;18.50;99.90
3727;DHT22;1879;45.876;12.300;2022-10-26T08:58:35;18.60;99.90
3727;DHT22;1879;45.876;12.300;2022-10-26T09:03:52;18.90;99.90
3727;DHT22;1879;45.876;12.300;2022-10-26T09:06:25;19.00;99.90
3727;DHT22;1879;45.876;12.300;2022-10-26T09:09:03;19.10;99.90
3727;DHT22;1879;45.876;12.300;2022-10-26T09:11:45;19.20;99.90
3727;DHT22;1879;45.876;12.300;2022-10-26T09:14:19;19.30;99.90
3727;DHT22;1879;45.876;12.300;2022-10-26T09:16:56;19.30;99.90
3727;DHT22;1879;45.876;12.300;2022-10-26T09:19:57;19.40;99.90
3727;DHT22;1879;45.876;12.300;2022-10-26T09:22:31;19.50;99.90
3727;DHT22;1879;45.876;12.300;2022-10-26T09:25:04;19.60;99.90
3727;DHT22;1879;45.876;12.300;2022-10-26T09:27:39;19.70;99.90
3727;DHT22;1879;45.876;12.300;2022-10-26T09:30:13;19.70;99.90
3727;DHT22;1879;45.876;12.300;2022-10-26T09:32:42;19.80;99.90
3727;DHT22;1879;45.876;12.300;2022-10-26T09:35:14;19.90;99.90
3727;DHT22;1879;45.876;12.300;2022-10-26T09:37:46;19.80;99.90
3727;DHT22;1879;45.876;12.300;2022-10-26T09:40:17;19.90;99.90
3727;DHT22;1879;45.876;12.300;2022-10-26T09:42:53;19.90;99.90
3727;DHT22;1879;45.876;12.300;2022-10-26T09:45:28;19.90;99.90
3727;DHT22;1879;45.876;12.300;2022-10-26T09:48:00;20.10;99.90
3727;DHT22;1879;45.876;12.300;2022-10-26T09:50:31;20.20;99.90
3727;DHT22;1879;45.876;12.300;2022-10-26T09:52:58;20.30;99.90
3727;DHT22;1879;45.876;12.300;2022-10-26T09:55:25;20.40;99.90
3727;DHT22;1879;45.876;12.300;2022-10-26T09:57:56;20.60;99.90
3727;DHT22;1879;45.876;12.300;2022-10-26T10:00:24;20.70;99.90
3727;DHT22;1879;45.876;12.300;2022-10-26T10:02:52;20.80;99.90
3727;DHT22;1879;45.876;12.300;2022-10-26T10:05:29;20.80;99.90
3727;DHT22;1879;45.876;12.300;2022-10-26T10:08:12;20.80;99.90
3727;DHT22;1879;45.876;12.300;2022-10-26T10:10:55;20.90;99.90
3727;DHT22;1879;45.876;12.300;2022-10-26T10:13:27;21.00;99.90
3727;DHT22;1879;45.876;12.300;2022-10-26T10:16:00;21.10;99.90
3727;DHT22;1879;45.876;12.300;2022-10-26T10:18:28;21.10;99.90
3727;DHT22;1879;45.876;12.300;2022-10-26T10:20:56;21.30;99.90
3727;DHT22;1879;45.876;12.300;2022-10-26T10:23:29;21.40;99.90
3727;DHT22;1879;45.876;12.300;2022-10-26T10:26:02;21.40;99.90
3727;DHT22;1879;45.876;12.300;2022-10-26T10:28:33;21.50;99.90
3727;DHT22;1879;45.876;12.300;2022-10-26T10:31:02;21.70;99.90
3727;DHT22;1879;45.876;12.300;2022-10-26T10:33:36;21.80;99.90
3727;DHT22;1879;45.876;12.300;2022-10-26T10:36:07;21.80;99.90
3727;DHT22;1879;45.876;12.300;2022-10-26T10:38:42;21.90;99.90
3727;DHT22;1879;45.876;12.300;2022-10-26T10:41:21;21.90;99.90
3727;DHT22;1879;45.876;12.300;2022-10-26T10:43:55;22.00;99.90
3727;DHT22;1879;45.876;12.300;2022-10-26T10:46:25;22.10;99.90
3727;DHT22;1879;45.876;12.300;2022-10-26T10:49:02;22.20;99.90
3727;DHT22;1879;45.876;12.300;2022-10-26T10:51:35;22.30;99.90
3727;DHT22;1879;45.876;12.300;2022-10-26T10:54:03;22.40;99.90
3727;DHT22;1879;45.876;12.300;2022-10-26T10:56:39;22.60;99.90
3727;DHT22;1879;45.876;12.300;2022-10-26T11:02:27;22.70;99.90
3727;DHT22;1879;45.876;12.300;2022-10-26T11:05:17;22.70;99.90
3727;DHT22;1879;45.876;12.300;2022-10-26T11:07:51;23.10;99.90
3727;DHT22;1879;45.876;12.300;2022-10-26T11:10:22;23.60;99.90
3727;DHT22;1879;45.876;12.300;2022-10-26T11:12:55;23.50;99.90
3727;DHT22;1879;45.876;12.300;2022-10-26T11:15:27;24.70;99.90
3727;DHT22;1879;45.876;12.300;2022-10-26T11:18:01;26.40;99.90
3727;DHT22;1879;45.876;12.300;2022-10-26T11:20:34;28.50;97.10
3727;DHT22;1879;45.876;12.300;2022-10-26T11:23:08;29.10;97.40
3727;DHT22;1879;45.876;12.300;2022-10-26T11:25:43;30.30;95.30
3727;DHT22;1879;45.876;12.300;2022-10-26T11:28:17;31.10;93.00
3727;DHT22;1879;45.876;12.300;2022-10-26T11:30:49;31.80;91.70
3727;DHT22;1879;45.876;12.300;2022-10-26T11:33:22;32.00;85.80
3727;DHT22;1879;45.876;12.300;2022-10-26T11:35:56;32.00;84.90
3727;DHT22;1879;45.876;12.300;2022-10-26T11:38:29;32.20;83.90
3727;DHT22;1879;45.876;12.300;2022-10-26T11:41:02;32.80;83.50
3727;DHT22;1879;45.876;12.300;2022-10-26T11:43:36;33.30;80.10
3727;DHT22;1879;45.876;12.300;2022-10-26T11:46:09;33.00;77.60
3727;DHT22;1879;45.876;12.300;2022-10-26T11:48:43;32.70;74.80
3727;DHT22;1879;45.876;12.300;2022-10-26T11:51:20;32.50;76.30
3727;DHT22;1879;45.876;12.300;2022-10-26T11:53:48;32.90;76.50
3727;DHT22;1879;45.876;12.300;2022-10-26T11:56:30;33.60;77.10
3727;DHT22;1879;45.876;12.300;2022-10-26T11:58:58;34.00;73.00
3727;DHT22;1879;45.876;12.300;2022-10-26T12:01:28;33.70;71.10
3727;DHT22;1879;45.876;12.300;2022-10-26T12:03:57;32.30;72.20
3727;DHT22;1879;45.876;12.300;2022-10-26T12:06:29;30.50;74.90
3727;DHT22;1879;45.876;12.300;2022-10-26T12:09:00;28.70;77.60
3727;DHT22;1879;45.876;12.300;2022-10-26T12:11:37;28.20;82.40
3727;DHT22;1879;45.876;12.300;2022-10-26T12:14:16;29.50;82.70
3727;DHT22;1879;45.876;12.300;2022-10-26T12:16:54;31.40;81.30
3727;DHT22;1879;45.876;12.300;2022-10-26T12:19:27;32.90;77.50
3727;DHT22;1879;45.876;12.300;2022-10-26T12:21:55;31.50;74.60
3727;DHT22;1879;45.876;12.300;2022-10-26T12:24:25;31.80;77.20
3727;DHT22;1879;45.876;12.300;2022-10-26T12:26:54;33.10;75.40
3727;DHT22;1879;45.876;12.300;2022-10-26T12:29:35;33.70;70.90
3727;DHT22;1879;45.876;12.300;2022-10-26T12:35:30;30.40;73.90
3727;DHT22;1879;45.876;12.300;2022-10-26T12:37:58;30.50;74.40
3727;DHT22;1879;45.876;12.300;2022-10-26T12:40:42;31.70;74.10
3727;DHT22;1879;45.876;12.300;2022-10-26T12:43:32;33.10;71.00
3727;DHT22;1879;45.876;12.300;2022-10-26T12:52:28;35.10;61.30
3727;DHT22;1879;45.876;12.300;2022-10-26T12:58:31;31.30;69.50
3727;DHT22;1879;45.876;12.300;2022-10-26T13:04:21;30.00;72.00
3727;DHT22;1879;45.876;12.300;2022-10-26T13:07:16;31.40;71.10
3727;DHT22;1879;45.876;12.300;2022-10-26T13:09:48;32.80;69.10
3727;DHT22;1879;45.876;12.300;2022-10-26T13:12:17;33.00;67.90
3727;DHT22;1879;45.876;12.300;2022-10-26T13:14:58;33.70;67.80
3727;DHT22;1879;45.876;12.300;2022-10-26T13:17:30;34.40;65.80
3727;DHT22;1879;45.876;12.300;2022-10-26T13:19:59;34.40;64.90
3727;DHT22;1879;45.876;12.300;2022-10-26T13:22:27;34.70;64.40
3727;DHT22;1879;45.876;12.300;2022-10-26T13:24:58;34.60;62.60
3727;DHT22;1879;45.876;12.300;2022-10-26T13:27:43;34.20;62.00
3727;DHT22;1879;45.876;12.300;2022-10-26T13:30:41;34.10;62.10
3727;DHT22;1879;45.876;12.300;2022-10-26T13:33:21;34.00;61.70
3727;DHT22;1879;45.876;12.300;2022-10-26T13:35:52;34.40;61.90
3727;DHT22;1879;45.876;12.300;2022-10-26T13:38:23;34.70;61.40
3727;DHT22;1879;45.876;12.300;2022-10-26T13:41:12;34.20;59.80
3727;DHT22;1879;45.876;12.300;2022-10-26T13:43:41;33.70;60.90
3727;DHT22;1879;45.876;12.300;2022-10-26T13:46:21;33.60;62.20
3727;DHT22;1879;45.876;12.300;2022-10-26T13:48:51;33.20;62.20
3727;DHT22;1879;45.876;12.300;2022-10-26T13:51:22;33.00;64.50
3727;DHT22;1879;45.876;12.300;2022-10-26T13:53:51;32.90;62.70
3727;DHT22;1879;45.876;12.300;2022-10-26T13:56:27;32.70;63.20
3727;DHT22;1879;45.876;12.300;2022-10-26T13:59:02;32.30;63.00
3727;DHT22;1879;45.876;12.300;2022-10-26T14:01:34;31.40;65.30
3727;DHT22;1879;45.876;12.300;2022-10-26T14:04:14;30.50;67.10
3727;DHT22;1879;45.876;12.300;2022-10-26T14:06:45;29.70;70.80
3727;DHT22;1879;45.876;12.300;2022-10-26T14:09:15;29.00;72.00
3727;DHT22;1879;45.876;12.300;2022-10-26T14:11:48;28.40;73.90
3727;DHT22;1879;45.876;12.300;2022-10-26T14:14:19;27.80;74.90
3727;DHT22;1879;45.876;12.300;2022-10-26T14:16:49;27.40;76.70
3727;DHT22;1879;45.876;12.300;2022-10-26T14:19:24;27.00;78.60
3727;DHT22;1879;45.876;12.300;2022-10-26T14:21:52;26.80;79.60
3727;DHT22;1879;45.876;12.300;2022-10-26T14:24:21;26.50;81.30
3727;DHT22;1879;45.876;12.300;2022-10-26T14:26:50;26.20;83.20
3727;DHT22;1879;45.876;12.300;2022-10-26T14:29:18;25.90;82.80
3727;DHT22;1879;45.876;12.300;2022-10-26T14:31:46;25.70;84.00
3727;DHT22;1879;45.876;12.300;2022-10-26T14:34:15;25.40;84.30
3727;DHT22;1879;45.876;12.300;2022-10-26T14:36:45;25.10;85.80
3727;DHT22;1879;45.876;12.300;2022-10-26T14:39:19;24.80;87.00
3727;DHT22;1879;45.876;12.300;2022-10-26T14:41:49;24.60;88.10
3727;DHT22;1879;45.876;12.300;2022-10-26T14:44:20;24.50;90.30
3727;DHT22;1879;45.876;12.300;2022-10-26T14:46:48;24.40;90.50
3727;DHT22;1879;45.876;12.300;2022-10-26T14:49:18;24.30;90.80
3727;DHT22;1879;45.876;12.300;2022-10-26T14:51:46;24.30;92.40
3727;DHT22;1879;45.876;12.300;2022-10-26T14:54:20;24.30;92.60
3727;DHT22;1879;45.876;12.300;2022-10-26T14:56:47;24.30;94.40
3727;DHT22;1879;45.876;12.300;2022-10-26T14:59:21;24.20;94.70
3727;DHT22;1879;45.876;12.300;2022-10-26T15:01:52;24.10;95.90
3727;DHT22;1879;45.876;12.300;2022-10-26T15:04:28;24.10;95.80
3727;DHT22;1879;45.876;12.300;2022-10-26T15:07:01;23.90;96.20
3727;DHT22;1879;45.876;12.300;2022-10-26T15:09:38;23.80;96.60
3727;DHT22;1879;45.876;12.300;2022-10-26T15:12:21;23.60;97.10
3727;DHT22;1879;45.876;12.300;2022-10-26T15:14:52;23.50;98.20
3727;DHT22;1879;45.876;12.300;2022-10-26T15:17:22;23.40;99.20
3727;DHT22;1879;45.876;12.300;2022-10-26T15:19:52;23.20;99.80
3727;DHT22;1879;45.876;12.300;2022-10-26T15:22:23;23.00;99.90
3727;DHT22;1879;45.876;12.300;2022-10-26T15:24:53;22.90;99.90
3727;DHT22;1879;45.876;12.300;2022-10-26T15:27:21;22.80;99.90
3727;DHT22;1879;45.876;12.300;2022-10-26T15:29:50;22.70;99.90
3727;DHT22;1879;45.876;12.300;2022-10-26T15:32:24;22.70;99.90
3727;DHT22;1879;45.876;12.300;2022-10-26T15:35:14;22.50;99.90
3727;DHT22;1879;45.876;12.300;2022-10-26T15:37:41;22.50;99.90
3727;DHT22;1879;45.876;12.300;2022-10-26T15:40:08;22.40;99.90
3727;DHT22;1879;45.876;12.300;2022-10-26T15:42:37;22.30;99.90
3727;DHT22;1879;45.876;12.300;2022-10-26T15:45:14;22.30;99.90
3727;DHT22;1879;45.876;12.300;2022-10-26T15:47:43;22.10;99.90
3727;DHT22;1879;45.876;12.300;2022-10-26T15:50:12;22.00;99.90
3727;DHT22;1879;45.876;12.300;2022-10-26T15:52:39;22.00;99.90
3727;DHT22;1879;45.876;12.300;2022-10-26T15:55:07;21.90;99.90
3727;DHT22;1879;45.876;12.300;2022-10-26T15:57:35;21.80;99.90
3727;DHT22;1879;45.876;12.300;2022-10-26T16:00:04;21.80;99.90
3727;DHT22;1879;45.876;12.300;2022-10-26T16:02:33;21.70;99.90
3727;DHT22;1879;45.876;12.300;2022-10-26T16:05:02;21.60;99.90
3727;DHT22;1879;45.876;12.300;2022-10-26T16:07:29;21.50;99.90
3727;DHT22;1879;45.876;12.300;2022-10-26T16:09:56;21.50;99.90
3727;DHT22;1879;45.876;12.300;2022-10-26T16:12:23;21.40;99.90
3727;DHT22;1879;45.876;12.300;2022-10-26T16:14:50;21.40;99.90
3727;DHT22;1879;45.876;12.300;2022-10-26T16:17:17;21.30;99.90
3727;DHT22;1879;45.876;12.300;2022-10-26T16:19:44;21.30;99.90
3727;DHT22;1879;45.876;12.300;2022-10-26T16:22:14;21.20;99.90
3727;DHT22;1879;45.876;12.300;2022-10-26T16:24:41;21.10;99.90
3727;DHT22;1879;45.876;12.300;2022-10-26T16:27:08;21.10;99.90
3727;DHT22;1879;45.876;12.300;2022-10-26T16:29:35;21.10;99.90
3727;DHT22;1879;45.876;12.300;2022-10-26T16:32:02;21.00;99.90
3727;DHT22;1879;45.876;12.300;2022-10-26T16:34:29;21.00;99.90
3727;DHT22;1879;45.876;12.300;2022-10-26T16:36:56;21.00;99.90
3727;DHT22;1879;45.876;12.300;2022-10-26T16:39:24;20.90;99.90
3727;DHT22;1879;45.876;12.300;2022-10-26T16:41:51;20.90;99.90
3727;DHT22;1879;45.876;12.300;2022-10-26T16:44:18;20.80;99.90
3727;DHT22;1879;45.876;12.300;2022-10-26T16:46:45;20.80;99.90